createdAt,value
2023-02-04T00:01:28.241Z,8.38
2023-02-04T00:06:36.916Z,10.08
2023-02-04T00:11:45.189Z,10.08
2023-02-04T00:16:54.183Z,11.03
2023-02-04T00:22:02.625Z,11.88
2023-02-04T00:27:11.665Z,11.35
2023-02-04T00:32:20.177Z,12.47
2023-02-04T00:37:29.248Z,10.08
2023-02-04T00:42:37.638Z,9.93
2023-02-04T00:47:46.270Z,8.55
2023-02-04T00:52:54.835Z,8.64
2023-02-04T00:58:03.289Z,9.01
2023-02-04T01:03:11.890Z,8.62
2023-02-04T01:08:20.862Z,9.31
2023-02-04T01:13:29.352Z,7.52
2023-02-04T01:18:38.169Z,9.31
2023-02-04T01:23:46.114Z,9.35
2023-02-04T01:28:54.341Z,9.16
2023-02-04T01:34:02.883Z,7.86
2023-02-04T01:39:11.465Z,6.86
2023-02-04T01:44:19.736Z,6.41
2023-02-04T01:49:28.915Z,6.07
2023-02-04T01:54:37.602Z,6.35
2023-02-04T01:59:46.540Z,6.47
2023-02-04T02:04:54.894Z,6.19
2023-02-04T02:10:03.667Z,5.19
2023-02-04T02:15:12.203Z,5.13
2023-02-04T02:20:21.108Z,5.00
2023-02-04T02:25:29.648Z,4.78
2023-02-04T02:30:38.180Z,6.19
2023-02-04T02:35:46.428Z,5.20
2023-02-04T02:40:54.669Z,6.17
2023-02-04T02:46:02.889Z,6.08
2023-02-04T02:51:11.599Z,6.72
2023-02-04T02:56:19.914Z,6.34
2023-02-04T03:01:28.744Z,6.02
2023-02-04T03:06:37.040Z,6.22
2023-02-04T03:11:45.299Z,5.79
2023-02-04T03:16:53.671Z,6.39
2023-02-04T03:22:02.488Z,6.00
2023-02-04T03:27:10.756Z,6.45
2023-02-04T03:32:19.342Z,6.64
2023-02-04T03:37:27.671Z,6.91
2023-02-04T03:42:36.405Z,7.54
2023-02-04T03:47:44.704Z,7.62
2023-02-04T03:52:53.487Z,7.69
2023-02-04T03:58:01.980Z,7.38
2023-02-04T04:03:11.115Z,7.19
2023-02-04T04:08:19.540Z,6.50
2023-02-04T04:13:28.339Z,7.27
2023-02-04T04:18:36.592Z,7.58
2023-02-04T04:23:45.290Z,7.26
2023-02-04T04:28:53.606Z,7.58
2023-02-04T04:34:02.303Z,7.05
2023-02-04T04:39:10.589Z,6.49
2023-02-04T04:44:19.572Z,6.63
2023-02-04T04:49:27.839Z,6.62
2023-02-04T04:54:36.663Z,6.61
2023-02-04T04:59:45.019Z,6.26
2023-02-04T05:04:53.676Z,6.14
2023-02-04T05:10:02.009Z,6.31
2023-02-04T05:15:10.701Z,6.66
2023-02-04T05:20:18.967Z,6.58
2023-02-04T05:25:27.785Z,6.44
2023-02-04T05:30:36.052Z,6.43
2023-02-04T05:35:44.533Z,4.97
2023-02-04T05:40:53.203Z,5.24
2023-02-04T05:46:02.477Z,6.22
2023-02-04T05:51:10.814Z,5.57
2023-02-04T05:56:19.599Z,5.94
2023-02-04T06:01:28.134Z,6.30
2023-02-04T06:06:36.945Z,6.43
2023-02-04T06:11:45.253Z,5.65
2023-02-04T06:16:54.217Z,6.35
2023-02-04T06:22:02.749Z,6.44
2023-02-04T06:27:11.608Z,6.63
2023-02-04T06:32:20.112Z,5.69
2023-02-04T06:37:29.253Z,6.40
2023-02-04T06:42:37.701Z,7.03
2023-02-04T06:47:46.435Z,7.23
2023-02-04T06:52:55.122Z,7.93
2023-02-04T06:58:04.071Z,6.78
2023-02-04T07:03:12.764Z,6.81
2023-02-04T07:08:22.361Z,6.39
2023-02-04T07:13:30.951Z,6.88
2023-02-04T07:18:40.094Z,7.14
2023-02-04T07:23:48.675Z,6.64
2023-02-04T07:28:57.576Z,8.58
2023-02-04T07:34:05.669Z,7.71
2023-02-04T07:39:14.757Z,7.75
2023-02-04T07:44:23.182Z,6.68
2023-02-04T07:49:31.900Z,7.66
2023-02-04T07:54:40.240Z,7.72
2023-02-04T07:59:49.095Z,8.26
2023-02-04T08:04:57.665Z,8.86
2023-02-04T08:10:06.104Z,8.10
2023-02-04T08:15:14.470Z,9.14
2023-02-04T08:20:23.098Z,15.42
2023-02-04T08:25:31.743Z,14.83
2023-02-04T08:30:40.338Z,10.33
2023-02-04T08:35:48.583Z,9.97
2023-02-04T08:40:57.801Z,9.50
2023-02-04T08:46:06.838Z,8.30
2023-02-04T08:51:15.886Z,7.48
2023-02-04T08:56:24.444Z,7.18
2023-02-04T09:01:33.654Z,7.15
2023-02-04T09:06:42.329Z,6.10
2023-02-04T09:11:51.656Z,7.34
2023-02-04T09:17:00.200Z,8.50
2023-02-04T09:22:08.959Z,8.19
2023-02-04T09:27:18.142Z,7.12
2023-02-04T09:32:26.503Z,7.30
2023-02-04T09:37:34.992Z,9.60
2023-02-04T09:42:43.918Z,11.22
2023-02-04T09:47:52.751Z,7.88
2023-02-04T09:53:01.677Z,6.27
2023-02-04T09:58:11.147Z,6.42
2023-02-04T10:03:20.275Z,8.35
2023-02-04T10:08:28.676Z,7.88
2023-02-04T10:13:37.352Z,6.84
2023-02-04T10:18:45.788Z,7.82
2023-02-04T10:23:54.645Z,7.71
2023-02-04T10:29:03.171Z,6.51
2023-02-04T10:34:12.416Z,6.04
2023-02-04T10:39:21.043Z,5.24
2023-02-04T10:44:30.215Z,6.25
2023-02-04T10:49:38.921Z,8.52
2023-02-04T10:54:47.766Z,5.19
2023-02-04T10:59:56.559Z,6.38
2023-02-04T11:05:06.380Z,7.02
2023-02-04T11:10:15.248Z,4.87
2023-02-04T11:15:25.171Z,4.75
2023-02-04T11:20:34.293Z,5.46
2023-02-04T11:25:42.839Z,4.75
2023-02-04T11:30:51.656Z,4.76
2023-02-04T11:36:00.460Z,4.64
2023-02-04T11:41:09.441Z,6.01
2023-02-04T11:46:18.190Z,5.20
2023-02-04T11:51:27.094Z,4.80
2023-02-04T11:56:36.034Z,5.72
2023-02-04T12:01:44.581Z,7.03
2023-02-04T12:06:53.298Z,7.01
2023-02-04T12:12:02.062Z,6.41
2023-02-04T12:17:11.148Z,6.86
2023-02-04T12:22:19.986Z,10.03
2023-02-04T12:27:29.032Z,5.70
2023-02-04T12:32:37.596Z,4.38
2023-02-04T12:37:46.594Z,5.50
2023-02-04T12:42:55.012Z,7.00
2023-02-04T12:48:03.969Z,7.62
2023-02-04T12:53:12.269Z,6.68
2023-02-04T12:58:21.589Z,5.89
2023-02-04T13:03:29.847Z,5.36
2023-02-04T13:08:38.740Z,8.29
2023-02-04T13:13:47.097Z,6.07
2023-02-04T13:18:56.264Z,6.36
2023-02-04T13:24:05.210Z,6.64
2023-02-04T13:29:14.367Z,7.27
2023-02-04T13:34:23.121Z,6.38
2023-02-04T13:39:32.260Z,5.30
2023-02-04T13:44:41.571Z,4.15
2023-02-04T13:49:50.756Z,6.36
2023-02-04T13:54:59.224Z,6.30
2023-02-04T14:00:08.548Z,6.67
2023-02-04T14:05:17.071Z,6.05
2023-02-04T14:10:26.264Z,4.98
2023-02-04T14:15:34.940Z,5.46
2023-02-04T14:20:44.096Z,6.53
2023-02-04T14:25:52.510Z,4.84
2023-02-04T14:31:01.758Z,5.00
2023-02-04T14:36:10.852Z,5.44
2023-02-04T14:41:19.525Z,6.49
2023-02-04T14:46:28.540Z,5.59
2023-02-04T14:51:37.057Z,6.06
2023-02-04T14:56:45.756Z,4.03
2023-02-04T15:01:55.079Z,4.22
2023-02-04T15:07:03.909Z,4.86
2023-02-04T15:12:12.849Z,4.86
2023-02-04T15:17:21.448Z,4.41
2023-02-04T15:22:31.265Z,3.97
2023-02-04T15:27:40.180Z,4.00
2023-02-04T15:32:49.239Z,3.46
2023-02-04T15:37:57.768Z,3.34
2023-02-04T15:43:06.677Z,3.74
2023-02-04T15:48:15.261Z,3.67
2023-02-04T15:53:24.762Z,3.80
2023-02-04T15:58:33.176Z,4.29
2023-02-04T16:03:41.905Z,3.15
2023-02-04T16:08:51.036Z,4.98
2023-02-04T16:14:00.110Z,3.72
2023-02-04T16:19:09.346Z,4.24
2023-02-04T16:24:17.931Z,4.72
2023-02-04T16:29:26.703Z,5.17
2023-02-04T16:34:35.846Z,5.35
2023-02-04T16:39:44.215Z,6.27
2023-02-04T16:44:52.822Z,5.68
2023-02-04T16:50:01.579Z,5.94
2023-02-04T16:55:10.910Z,5.24
2023-02-04T17:00:19.419Z,6.73
2023-02-04T17:05:28.558Z,6.34
2023-02-04T17:10:36.863Z,5.50
2023-02-04T17:15:45.249Z,6.00
2023-02-04T17:20:54.760Z,5.44
2023-02-04T17:26:04.012Z,5.13
2023-02-04T17:31:12.732Z,5.91
2023-02-04T17:36:21.329Z,6.07
2023-02-04T17:41:30.776Z,5.77
2023-02-04T17:46:38.284Z,6.18
2023-02-04T17:51:46.947Z,6.30
2023-02-04T17:56:55.947Z,6.54
2023-02-04T18:02:04.736Z,7.18
2023-02-04T18:07:13.897Z,8.01
2023-02-04T18:12:25.514Z,8.08
2023-02-04T18:17:24.565Z,8.89
2023-02-04T18:22:33.227Z,13.65
2023-02-04T18:27:41.987Z,15.38
2023-02-04T18:32:50.852Z,18.89
2023-02-04T18:37:59.694Z,11.19
2023-02-04T18:43:08.282Z,10.02
2023-02-04T18:48:17.434Z,9.05
2023-02-04T18:53:25.892Z,10.91
2023-02-04T18:58:36.207Z,10.74
2023-02-04T19:03:34.877Z,12.01
2023-02-04T19:08:43.741Z,12.35
2023-02-04T19:13:52.850Z,12.72
2023-02-04T19:19:00.501Z,14.01
2023-02-04T19:24:09.234Z,14.27
2023-02-04T19:29:18.100Z,13.82
2023-02-04T19:34:26.432Z,14.49
2023-02-04T19:39:35.645Z,19.94
2023-02-04T19:44:44.133Z,19.94
2023-02-04T19:49:52.932Z,23.29
2023-02-04T19:55:01.298Z,19.07
2023-02-04T20:00:10.233Z,19.10
2023-02-04T20:05:18.853Z,18.65
2023-02-04T20:10:27.503Z,18.00
2023-02-04T20:15:36.911Z,14.71
2023-02-04T20:20:45.545Z,13.41
2023-02-04T20:25:53.791Z,15.37
2023-02-04T20:31:02.395Z,16.30
2023-02-04T20:36:11.000Z,15.02
2023-02-04T20:41:19.704Z,13.70
2023-02-04T20:46:28.033Z,11.28
2023-02-04T20:51:36.918Z,9.95
2023-02-04T20:56:45.226Z,10.13
2023-02-04T21:01:53.909Z,11.81
2023-02-04T21:07:02.607Z,11.52
2023-02-04T21:12:11.427Z,12.43
2023-02-04T21:17:19.667Z,11.78
2023-02-04T21:22:28.528Z,11.62
2023-02-04T21:27:36.600Z,10.99
2023-02-04T21:32:45.269Z,8.22
2023-02-04T21:37:53.730Z,8.69
2023-02-04T21:43:02.693Z,9.92
2023-02-04T21:48:11.472Z,12.20
2023-02-04T21:53:20.347Z,11.37
2023-02-04T21:58:28.941Z,14.78
2023-02-04T22:03:37.738Z,12.95
2023-02-04T22:08:46.194Z,13.37
2023-02-04T22:13:54.929Z,14.00
2023-02-04T22:19:03.279Z,10.80
2023-02-04T22:24:12.128Z,12.18
2023-02-04T22:29:20.485Z,13.36
2023-02-04T22:34:29.644Z,13.79
2023-02-04T22:39:38.080Z,12.57
2023-02-04T22:44:46.963Z,10.28
2023-02-04T22:49:55.468Z,13.63
2023-02-04T22:55:04.504Z,13.56
2023-02-04T23:00:13.273Z,12.36
2023-02-04T23:05:21.791Z,14.80
2023-02-04T23:10:30.220Z,14.60
2023-02-04T23:15:38.541Z,13.75
2023-02-04T23:20:47.098Z,12.94
2023-02-04T23:25:55.585Z,14.78
2023-02-04T23:31:04.445Z,14.64
2023-02-04T23:36:12.985Z,16.21
2023-02-04T23:41:21.147Z,16.35
2023-02-04T23:46:29.776Z,16.56
2023-02-04T23:51:38.026Z,16.19
2023-02-04T23:56:46.834Z,17.14
